Wendell, NC (27591)

8:25 AM EDT on September 05, 2015 (GMT -0400)
Covington Cross | | Change Station
CLOSE
Current Station
Personal Weather Station
Location: Knightdale, NC
Elevation: 243 ft
Nearby Weather Stations

Elev 243 ft 35.77 °N, 78.44 °W | Updated 10 minutes ago

Partly Cloudy
Partly Cloudy
71.1 °F
Feels Like 71.1 °F
N
1.6
Wind Variable Wind from WNW

Today
High -- | Low -- °F
--% Chance of Precip.
Yesterday
High -- | Low -- °F
Precip. -- in
6:48 AM 7:35 PM
Waning Gibbous, 49% visible
Pressure 30.17 in
Visibility 2.5 miles
Clouds Overcast 200 ft
Dew Point 70 °F
Humidity 98%
Rainfall 1.13 in
Snow Depth Not available.
UV 0 out of 12
Pollen 8.60 out of 12
Air Quality Not available.
Flu Activity Not available.
METAR KLHZ 051215Z AUTO 02007KT 2 1/2SM BR OVC002 21/21 A3017 RMK AO2
Pressure 30.17 in
Visibility 2.5 miles
Clouds Overcast 200 ft
Dew Point 70 °F
Humidity 98%
Rainfall 1.13 in
Snow Depth Not available.
UV 0 out of 12
Pollen 8.60 out of 12
Air Quality Not available.
Flu Activity Not available.
METAR KLHZ 051215Z AUTO 02007KT 2 1/2SM BR OVC002 21/21 A3017 RMK AO2

10-Day Weather Forecast

×

Almanac

Astronomy

Sep. 05, 2015 Rise Set
Actual Time
Civil Twilight
Nautical Twilight
Astronomical Twilight
Moon
Length of Visible Light
Length of Day
Tomorrow will be .
, % of the Moon is Illuminated

Today's Extremes

State Highs State Lows

Community

WunderPhotos

Upload Photos

1,852,455 photos uploaded!

WunderBlogs® & News

Nearby

Air Quality

  Air Quality AQ Index Pollutant
Not available.

Snow Depth

Station Depth Elevation

Earthquake Activity

City Distance Mag. Time & Date
Minimum magnitude displayed is 2.5.

Coastal Water Temperatures

Place Temperature

Stations

Nearby Weather Stations

Station Location Temp. Windchill Dew Point Humidity Wind Precip. Elev Updated Type